createdAt,value
2023-03-21T00:00:23.481Z,9.98
2023-03-21T00:02:50.010Z,8.02
2023-03-21T00:05:16.688Z,9.10
2023-03-21T00:07:43.299Z,7.32
2023-03-21T00:10:16.452Z,9.00
2023-03-21T00:12:46.249Z,5.90
2023-03-21T00:15:12.884Z,7.78
2023-03-21T00:17:39.831Z,8.70
2023-03-21T00:20:08.157Z,8.32
2023-03-21T00:22:35.779Z,7.82
2023-03-21T00:25:02.315Z,6.28
2023-03-21T00:27:53.387Z,8.30
2023-03-21T00:30:16.251Z,6.13
2023-03-21T00:32:55.212Z,4.85
2023-03-21T00:35:53.685Z,6.75
2023-03-21T00:38:09.773Z,7.00
2023-03-21T00:40:43.812Z,6.88
2023-03-21T00:43:19.469Z,5.72
2023-03-21T00:45:46.442Z,7.03
2023-03-21T00:48:13.235Z,8.45
2023-03-21T00:50:40.651Z,8.57
2023-03-21T00:53:07.189Z,6.28
2023-03-21T00:55:34.003Z,8.88
2023-03-21T00:58:02.434Z,8.15
2023-03-21T01:00:29.830Z,7.65
2023-03-21T01:03:02.564Z,7.60
2023-03-21T01:06:04.354Z,7.05
2023-03-21T01:08:44.610Z,6.78
2023-03-21T01:11:19.641Z,6.75
2023-03-21T01:13:53.852Z,6.90
2023-03-21T01:16:24.950Z,5.65
2023-03-21T01:18:52.318Z,8.13
2023-03-21T01:21:18.931Z,7.65
2023-03-21T01:23:45.607Z,7.15
2023-03-21T01:26:12.918Z,7.05
2023-03-21T01:28:41.788Z,7.40
2023-03-21T01:31:09.725Z,5.43
2023-03-21T01:33:36.288Z,8.90
2023-03-21T01:36:12.854Z,10.77
2023-03-21T01:38:41.681Z,7.30
2023-03-21T01:41:20.109Z,6.55
2023-03-21T01:43:47.709Z,8.20
2023-03-21T01:46:27.348Z,7.75
2023-03-21T01:49:34.233Z,9.57
2023-03-21T01:52:20.937Z,7.07
2023-03-21T01:54:55.036Z,7.88
2023-03-21T01:57:43.529Z,9.02
2023-03-21T02:00:15.416Z,7.18
2023-03-21T02:03:06.150Z,8.65
2023-03-21T02:05:52.884Z,8.07
2023-03-21T02:08:23.986Z,14.45
2023-03-21T02:10:53.014Z,8.55
2023-03-21T02:13:37.671Z,9.77
2023-03-21T02:16:22.043Z,9.55
2023-03-21T02:18:58.357Z,7.28
2023-03-21T02:21:34.509Z,9.38
2023-03-21T02:24:11.296Z,9.80
2023-03-21T02:27:01.373Z,9.05
2023-03-21T02:30:50.844Z,7.43
2023-03-21T02:33:40.102Z,8.48
2023-03-21T02:36:17.513Z,11.25
2023-03-21T02:39:14.848Z,10.13
2023-03-21T02:42:00.214Z,9.35
2023-03-21T02:44:42.704Z,8.07
2023-03-21T02:47:16.949Z,8.20
2023-03-21T02:49:51.224Z,9.05
2023-03-21T02:52:37.767Z,8.35
2023-03-21T02:55:21.929Z,9.52
2023-03-21T02:58:06.997Z,9.57
2023-03-21T03:00:40.605Z,9.23
2023-03-21T03:03:11.391Z,8.80
2023-03-21T03:05:46.077Z,9.68
2023-03-21T03:08:18.726Z,9.55
2023-03-21T03:10:54.460Z,9.75
2023-03-21T03:13:39.871Z,8.20
2023-03-21T03:16:19.962Z,9.52
2023-03-21T03:18:50.774Z,9.13
2023-03-21T03:21:27.284Z,12.80
2023-03-21T03:23:58.728Z,9.73
2023-03-21T03:26:35.275Z,7.38
2023-03-21T03:29:05.959Z,9.25
2023-03-21T03:31:47.625Z,7.85
2023-03-21T03:34:17.864Z,9.80
2023-03-21T03:36:51.569Z,9.45
2023-03-21T03:39:18.889Z,10.93
2023-03-21T03:44:43.334Z,12.20
2023-03-21T03:47:32.019Z,12.77
2023-03-21T03:50:08.912Z,9.93
2023-03-21T03:52:50.070Z,10.25
2023-03-21T03:55:22.771Z,10.82
2023-03-21T03:57:52.836Z,11.60
2023-03-21T04:00:19.516Z,10.07
2023-03-21T04:02:48.658Z,12.15
2023-03-21T04:05:21.430Z,9.60
2023-03-21T04:07:50.884Z,11.93
2023-03-21T04:10:20.490Z,15.05
2023-03-21T04:12:47.546Z,11.55
2023-03-21T04:15:27.794Z,11.68
2023-03-21T04:18:00.820Z,9.25
2023-03-21T04:20:36.645Z,11.63
2023-03-21T04:23:09.793Z,8.45
2023-03-21T04:25:42.302Z,8.02
2023-03-21T04:28:14.322Z,9.13
2023-03-21T04:31:01.392Z,8.70
2023-03-21T04:33:38.412Z,10.32
2023-03-21T04:36:27.579Z,11.60
2023-03-21T04:39:00.886Z,8.73
2023-03-21T04:41:28.816Z,8.82
2023-03-21T04:43:56.724Z,11.40
2023-03-21T04:46:24.067Z,9.68
2023-03-21T04:48:51.090Z,11.07
2023-03-21T04:51:17.553Z,10.85
2023-03-21T04:53:45.901Z,9.02
2023-03-21T04:56:13.229Z,13.25
2023-03-21T04:58:40.649Z,9.13
2023-03-21T05:01:07.684Z,10.10
2023-03-21T05:03:34.848Z,11.13
2023-03-21T05:06:01.793Z,9.45
2023-03-21T05:08:28.311Z,9.38
2023-03-21T05:10:54.826Z,9.52
2023-03-21T05:13:24.575Z,11.32
2023-03-21T05:15:51.041Z,11.77
2023-03-21T05:18:24.779Z,8.75
2023-03-21T05:21:04.263Z,10.38
2023-03-21T05:23:31.743Z,12.23
2023-03-21T05:25:58.663Z,9.40
2023-03-21T05:28:36.835Z,10.77
2023-03-21T05:31:04.452Z,10.90
2023-03-21T05:33:31.154Z,11.20
2023-03-21T05:35:58.481Z,11.07
2023-03-21T05:38:29.186Z,15.05
2023-03-21T05:40:55.734Z,8.75
2023-03-21T05:43:23.636Z,10.45
2023-03-21T05:45:50.336Z,12.82
2023-03-21T05:48:18.346Z,11.65
2023-03-21T05:51:07.456Z,10.27
2023-03-21T05:53:34.217Z,7.82
2023-03-21T05:56:00.846Z,9.23
2023-03-21T05:58:43.636Z,11.38
2023-03-21T06:01:10.532Z,10.30
2023-03-21T06:03:40.423Z,11.90
2023-03-21T06:06:12.892Z,11.32
2023-03-21T06:08:48.757Z,10.35
2023-03-21T06:11:23.229Z,14.70
2023-03-21T06:13:52.858Z,15.00
2023-03-21T06:16:21.652Z,11.38
2023-03-21T06:18:48.161Z,13.32
2023-03-21T06:21:28.917Z,10.20
2023-03-21T06:23:55.407Z,8.60
2023-03-21T06:26:23.320Z,7.97
2023-03-21T06:28:52.370Z,8.48
2023-03-21T06:31:20.532Z,10.15
2023-03-21T06:33:47.059Z,9.32
2023-03-21T06:36:13.544Z,11.63
2023-03-21T06:38:40.445Z,12.15
2023-03-21T06:41:09.706Z,10.07
2023-03-21T06:43:41.655Z,9.45
2023-03-21T06:46:08.167Z,11.90
2023-03-21T06:48:35.457Z,14.50
2023-03-21T06:51:01.981Z,9.75
2023-03-21T06:53:33.284Z,9.20
2023-03-21T06:56:15.852Z,11.35
2023-03-21T06:58:44.011Z,10.07
2023-03-21T07:01:20.002Z,9.75
2023-03-21T07:03:59.965Z,10.15
2023-03-21T07:06:28.499Z,11.45
2023-03-21T07:08:55.944Z,10.40
2023-03-21T07:11:23.489Z,11.98
2023-03-21T07:13:50.305Z,11.70
2023-03-21T07:16:18.514Z,10.25
2023-03-21T07:18:45.130Z,11.05
2023-03-21T07:21:12.027Z,10.20
2023-03-21T07:23:40.072Z,12.05
2023-03-21T07:26:08.286Z,11.20
2023-03-21T07:28:34.829Z,9.48
2023-03-21T07:31:04.463Z,9.13
2023-03-21T07:33:31.820Z,13.35
2023-03-21T07:36:02.269Z,10.32
2023-03-21T07:38:30.969Z,10.57
2023-03-21T07:40:59.276Z,8.38
2023-03-21T07:43:25.996Z,11.18
2023-03-21T07:45:56.839Z,8.68
2023-03-21T07:48:23.403Z,7.57
2023-03-21T07:50:50.605Z,9.88
2023-03-21T07:53:17.187Z,12.50
2023-03-21T07:55:43.795Z,6.28
2023-03-21T07:58:10.418Z,8.30
2023-03-21T08:00:36.853Z,5.68
2023-03-21T08:03:03.350Z,7.32
2023-03-21T08:05:34.293Z,9.82
2023-03-21T08:08:01.149Z,11.18
2023-03-21T08:10:28.108Z,7.65
2023-03-21T08:12:54.823Z,10.88
2023-03-21T08:15:21.651Z,6.18
2023-03-21T08:17:48.161Z,10.55
2023-03-21T08:20:17.427Z,10.73
2023-03-21T08:22:44.422Z,10.68
2023-03-21T08:25:16.253Z,7.38
2023-03-21T08:27:43.310Z,6.30
2023-03-21T08:30:12.265Z,7.88
2023-03-21T08:32:39.426Z,10.07
2023-03-21T08:35:10.200Z,9.88
2023-03-21T08:37:40.916Z,7.22
2023-03-21T08:40:13.317Z,6.82
2023-03-21T08:42:43.378Z,7.20
2023-03-21T08:45:11.023Z,9.95
2023-03-21T08:47:38.042Z,10.15
2023-03-21T08:50:06.817Z,10.68
2023-03-21T08:52:33.624Z,9.27
2023-03-21T08:55:02.048Z,7.63
2023-03-21T08:57:29.307Z,7.22
2023-03-21T08:59:55.814Z,7.88
2023-03-21T09:02:22.630Z,6.65
2023-03-21T09:04:49.189Z,9.48
2023-03-21T09:07:17.992Z,8.93
2023-03-21T09:09:45.913Z,7.93
2023-03-21T09:12:14.180Z,8.13
2023-03-21T09:14:41.168Z,9.82
2023-03-21T09:17:07.669Z,9.02
2023-03-21T09:19:35.081Z,11.18
2023-03-21T09:22:03.446Z,12.32
2023-03-21T09:24:29.937Z,10.02
2023-03-21T09:26:57.137Z,8.98
2023-03-21T09:29:23.923Z,9.23
2023-03-21T09:31:50.682Z,12.85
2023-03-21T09:34:17.176Z,9.20
2023-03-21T09:36:48.481Z,10.55
2023-03-21T09:39:16.197Z,9.38
2023-03-21T09:41:52.752Z,9.27
2023-03-21T09:44:31.307Z,11.88
2023-03-21T09:47:22.490Z,9.35
2023-03-21T09:49:56.662Z,9.80
2023-03-21T09:52:34.432Z,9.20
2023-03-21T09:55:00.952Z,12.95
2023-03-21T09:57:32.542Z,10.85
2023-03-21T10:00:08.661Z,9.77
2023-03-21T10:02:47.175Z,11.95
2023-03-21T10:05:20.992Z,12.18
2023-03-21T10:07:54.938Z,13.00
2023-03-21T10:10:26.481Z,11.25
2023-03-21T10:12:54.008Z,9.15
2023-03-21T10:15:22.793Z,11.30
2023-03-21T10:17:55.331Z,9.68
2023-03-21T10:20:34.306Z,10.93
2023-03-21T10:23:04.075Z,12.30
2023-03-21T10:25:34.091Z,10.93
2023-03-21T10:28:01.891Z,13.77
2023-03-21T10:30:36.218Z,11.10
2023-03-21T10:33:05.577Z,9.85
2023-03-21T10:35:36.960Z,8.02
2023-03-21T10:38:05.484Z,10.77
2023-03-21T10:40:34.183Z,11.48
2023-03-21T10:43:33.277Z,8.82
2023-03-21T10:46:06.652Z,11.57
2023-03-21T10:48:36.716Z,8.88
2023-03-21T10:51:06.917Z,14.15
2023-03-21T10:53:38.589Z,8.25
2023-03-21T10:56:09.192Z,7.18
2023-03-21T10:58:42.655Z,8.38
2023-03-21T11:01:14.948Z,5.70
2023-03-21T11:03:46.894Z,7.30
2023-03-21T11:06:28.692Z,5.68
2023-03-21T11:08:57.789Z,7.05
2023-03-21T11:11:29.610Z,7.28
2023-03-21T11:14:01.544Z,7.60
2023-03-21T11:16:39.622Z,7.65
2023-03-21T11:19:20.828Z,8.57
2023-03-21T11:21:47.374Z,7.28
2023-03-21T11:24:16.827Z,9.15
2023-03-21T11:26:45.803Z,8.77
2023-03-21T11:29:36.530Z,6.75
2023-03-21T11:32:32.810Z,7.95
2023-03-21T11:35:20.713Z,7.25
2023-03-21T11:37:53.260Z,6.63
2023-03-21T11:40:23.918Z,8.07
2023-03-21T11:42:51.983Z,10.98
2023-03-21T11:45:20.685Z,6.30
2023-03-21T11:47:49.358Z,8.27
2023-03-21T11:50:34.562Z,9.48
2023-03-21T11:53:19.259Z,10.35
2023-03-21T11:55:54.734Z,9.70
2023-03-21T11:58:34.617Z,7.40
2023-03-21T12:01:09.119Z,11.48
2023-03-21T12:04:00.166Z,7.82
2023-03-21T12:06:38.398Z,9.82
2023-03-21T12:09:18.659Z,8.68
2023-03-21T12:12:00.441Z,9.60
2023-03-21T12:14:39.534Z,7.28
2023-03-21T12:17:24.977Z,9.05
2023-03-21T12:20:08.169Z,9.05
2023-03-21T12:22:57.970Z,9.70
2023-03-21T12:25:36.988Z,10.82
2023-03-21T12:28:31.997Z,11.30
2023-03-21T12:31:21.072Z,8.13
2023-03-21T12:34:05.791Z,10.05
2023-03-21T12:37:07.011Z,11.23
2023-03-21T12:39:37.447Z,7.70
2023-03-21T12:42:28.218Z,10.45
2023-03-21T12:45:00.834Z,10.75
2023-03-21T12:47:32.032Z,10.90
2023-03-21T12:50:03.806Z,7.97
2023-03-21T12:52:43.273Z,10.65
2023-03-21T12:55:28.141Z,7.82
2023-03-21T12:58:00.134Z,8.38
2023-03-21T13:00:40.610Z,11.50
2023-03-21T13:03:27.658Z,7.20
2023-03-21T13:05:58.578Z,9.70
2023-03-21T13:08:31.234Z,8.80
2023-03-21T13:11:00.190Z,10.18
2023-03-21T13:13:43.405Z,11.50
2023-03-21T13:16:15.288Z,10.18
2023-03-21T13:19:03.860Z,7.78
2023-03-21T13:21:52.156Z,9.85
2023-03-21T13:24:49.169Z,9.63
2023-03-21T13:27:42.081Z,8.07
2023-03-21T13:30:14.348Z,6.55
2023-03-21T13:32:43.469Z,7.20
2023-03-21T13:35:27.370Z,9.57
2023-03-21T13:37:57.721Z,10.23
2023-03-21T13:40:34.513Z,7.47
2023-03-21T13:43:03.382Z,11.25
2023-03-21T13:45:46.114Z,10.63
2023-03-21T13:48:32.882Z,9.45
2023-03-21T13:51:01.110Z,10.98
2023-03-21T13:53:41.339Z,10.27
2023-03-21T13:56:09.566Z,10.18
2023-03-21T13:58:44.467Z,12.93
2023-03-21T14:01:35.525Z,7.28
2023-03-21T14:04:14.475Z,12.20
2023-03-21T14:06:45.792Z,8.23
2023-03-21T14:09:20.093Z,11.52
2023-03-21T14:11:48.473Z,9.18
2023-03-21T14:14:15.561Z,9.23
2023-03-21T14:16:42.244Z,8.15
2023-03-21T14:19:11.850Z,9.85
2023-03-21T14:21:47.235Z,12.80
2023-03-21T14:24:14.240Z,10.18
2023-03-21T14:26:52.540Z,11.48
2023-03-21T14:29:33.554Z,7.57
2023-03-21T14:32:01.298Z,7.63
2023-03-21T14:34:29.902Z,7.32
2023-03-21T14:36:58.459Z,10.80
2023-03-21T14:39:32.178Z,8.38
2023-03-21T14:42:16.794Z,8.50
2023-03-21T14:44:55.410Z,7.18
2023-03-21T14:47:26.026Z,9.18
2023-03-21T14:49:53.126Z,5.82
2023-03-21T14:52:30.437Z,8.45
2023-03-21T14:54:57.156Z,8.02
2023-03-21T14:57:27.661Z,7.35
2023-03-21T14:59:55.380Z,8.77
2023-03-21T15:02:32.391Z,11.27
2023-03-21T15:05:07.726Z,9.98
2023-03-21T15:07:34.971Z,7.82
2023-03-21T15:10:05.173Z,10.95
2023-03-21T15:12:32.115Z,9.82
2023-03-21T15:14:59.691Z,8.98
2023-03-21T15:17:26.350Z,13.23
2023-03-21T15:19:52.830Z,12.23
2023-03-21T15:22:39.307Z,10.38
2023-03-21T15:25:08.562Z,9.95
2023-03-21T15:27:38.830Z,10.40
2023-03-21T15:30:06.129Z,11.27
2023-03-21T15:32:36.610Z,8.50
2023-03-21T15:35:08.769Z,16.10
2023-03-21T15:37:36.945Z,8.23
2023-03-21T15:40:20.668Z,9.90
2023-03-21T15:42:47.253Z,9.13
2023-03-21T15:45:19.588Z,7.00
2023-03-21T15:47:49.190Z,7.40
2023-03-21T15:50:35.474Z,9.77
2023-03-21T15:53:05.705Z,7.65
2023-03-21T15:56:05.952Z,8.55
2023-03-21T15:58:38.896Z,12.45
2023-03-21T16:01:08.423Z,9.75
2023-03-21T16:03:42.926Z,10.13
2023-03-21T16:06:15.407Z,9.45
2023-03-21T16:08:44.728Z,10.30
2023-03-21T16:11:23.422Z,12.02
2023-03-21T16:13:50.346Z,10.77
2023-03-21T16:16:25.471Z,9.57
2023-03-21T16:18:52.821Z,10.35
2023-03-21T16:21:21.859Z,10.50
2023-03-21T16:23:48.736Z,12.98
2023-03-21T16:26:17.577Z,9.93
2023-03-21T16:28:45.348Z,10.13
2023-03-21T16:31:14.578Z,11.35
2023-03-21T16:33:41.824Z,9.70
2023-03-21T16:36:13.824Z,10.55
2023-03-21T16:38:40.308Z,11.02
2023-03-21T16:41:11.444Z,16.45
2023-03-21T16:43:42.827Z,9.95
2023-03-21T16:46:13.616Z,9.43
2023-03-21T16:48:40.703Z,11.30
2023-03-21T16:51:07.379Z,12.63
2023-03-21T16:53:33.848Z,10.55
2023-03-21T16:56:02.705Z,11.60
2023-03-21T16:58:29.726Z,12.23
2023-03-21T17:00:56.618Z,9.45
2023-03-21T17:03:23.256Z,11.82
2023-03-21T17:05:49.782Z,11.05
2023-03-21T17:08:18.101Z,12.95
2023-03-21T17:10:44.993Z,12.65
2023-03-21T17:13:11.681Z,12.95
2023-03-21T17:15:38.790Z,10.35
2023-03-21T17:18:05.485Z,9.05
2023-03-21T17:20:33.817Z,15.65
2023-03-21T17:23:00.994Z,14.95
2023-03-21T17:25:27.840Z,12.23
2023-03-21T17:27:54.634Z,13.23
2023-03-21T17:30:30.858Z,16.52
2023-03-21T17:32:58.557Z,14.65
2023-03-21T17:35:26.154Z,13.73
2023-03-21T17:37:52.873Z,14.10
2023-03-21T17:40:27.631Z,15.75
2023-03-21T17:42:54.589Z,16.33
2023-03-21T17:45:21.885Z,17.75
2023-03-21T17:47:49.212Z,13.02
2023-03-21T17:50:23.018Z,12.35
2023-03-21T17:52:50.686Z,12.05
2023-03-21T17:55:19.530Z,13.07
2023-03-21T17:57:47.052Z,11.68
2023-03-21T18:00:20.870Z,10.93
2023-03-21T18:02:47.640Z,12.48
2023-03-21T18:05:14.189Z,14.90
2023-03-21T18:10:31.683Z,13.25
2023-03-21T18:12:58.960Z,16.20
2023-03-21T18:15:30.228Z,17.25
2023-03-21T18:17:57.339Z,14.38
2023-03-21T18:20:44.665Z,13.95
2023-03-21T18:23:14.194Z,13.38
2023-03-21T18:25:41.735Z,14.98
2023-03-21T18:28:11.854Z,13.27
2023-03-21T18:31:00.286Z,13.15
2023-03-21T18:33:27.238Z,10.15
2023-03-21T18:35:58.769Z,11.93
2023-03-21T18:38:26.382Z,12.90
2023-03-21T18:40:52.899Z,11.88
2023-03-21T18:46:07.107Z,11.40
2023-03-21T18:48:34.328Z,17.02
2023-03-21T18:51:02.265Z,14.65
2023-03-21T18:53:29.903Z,14.75
2023-03-21T18:55:57.418Z,14.63
2023-03-21T18:58:24.792Z,18.25
2023-03-21T19:00:53.403Z,13.07
2023-03-21T19:03:34.276Z,15.70
2023-03-21T19:06:03.918Z,18.80
2023-03-21T19:08:31.016Z,14.98
2023-03-21T19:11:00.142Z,16.08
2023-03-21T19:13:29.997Z,15.32
2023-03-21T19:15:56.821Z,13.75
2023-03-21T19:18:41.664Z,16.20
2023-03-21T19:21:09.944Z,13.65
2023-03-21T19:24:11.765Z,17.17
2023-03-21T19:26:23.840Z,15.02
2023-03-21T19:28:50.446Z,16.10
2023-03-21T19:31:17.898Z,13.95
2023-03-21T19:33:44.961Z,16.48
2023-03-21T19:36:21.651Z,14.70
2023-03-21T19:38:48.667Z,16.08
2023-03-21T19:41:15.459Z,17.88
2023-03-21T19:43:52.893Z,17.55
2023-03-21T19:46:23.131Z,13.77
2023-03-21T19:48:50.170Z,16.05
2023-03-21T19:51:32.935Z,12.95
2023-03-21T19:54:00.663Z,15.00
2023-03-21T19:56:27.932Z,14.95
2023-03-21T19:58:57.820Z,17.27
2023-03-21T20:01:24.789Z,15.73
2023-03-21T20:03:51.563Z,13.75
2023-03-21T20:06:18.589Z,15.90
2023-03-21T20:11:31.897Z,17.27
2023-03-21T20:13:59.797Z,15.38
2023-03-21T20:16:33.624Z,21.05
2023-03-21T20:19:00.930Z,16.85
2023-03-21T20:21:34.790Z,14.63
2023-03-21T20:24:03.708Z,18.38
2023-03-21T20:26:31.035Z,17.35
2023-03-21T20:29:28.000Z,17.38
2023-03-21T20:31:44.431Z,15.15
2023-03-21T20:34:11.055Z,15.57
2023-03-21T20:36:40.879Z,18.45
2023-03-21T20:39:09.370Z,21.52
2023-03-21T20:41:35.871Z,18.75
2023-03-21T20:46:48.990Z,19.23
2023-03-21T20:49:15.654Z,17.35
2023-03-21T20:54:29.796Z,27.20
2023-03-21T20:56:57.198Z,23.38
2023-03-21T20:59:27.663Z,21.35
2023-03-21T21:01:56.180Z,18.88
2023-03-21T21:04:41.291Z,21.73
2023-03-21T21:07:15.714Z,17.63
2023-03-21T21:09:43.272Z,18.65
2023-03-21T21:12:10.256Z,18.67
2023-03-21T21:14:37.230Z,18.20
2023-03-21T21:17:21.039Z,15.98
2023-03-21T21:19:50.775Z,14.50
2023-03-21T21:22:17.527Z,14.68
2023-03-21T21:24:44.011Z,16.67
2023-03-21T21:27:10.703Z,17.15
2023-03-21T21:29:37.350Z,13.80
2023-03-21T21:32:05.205Z,15.45
2023-03-21T21:34:31.904Z,16.48
2023-03-21T21:36:58.428Z,15.75
2023-03-21T21:39:26.498Z,16.30
2023-03-21T21:41:53.599Z,15.70
2023-03-21T21:44:20.315Z,15.43
2023-03-21T21:46:47.117Z,16.35
2023-03-21T21:49:13.680Z,16.30
2023-03-21T21:51:41.841Z,18.58
2023-03-21T21:54:08.431Z,15.68
2023-03-21T21:56:36.962Z,17.50
2023-03-21T21:59:04.380Z,17.52
2023-03-21T22:01:34.588Z,18.80
2023-03-21T22:04:08.022Z,20.33
2023-03-21T22:06:34.711Z,19.30
2023-03-21T22:09:02.247Z,19.85
2023-03-21T22:11:28.721Z,17.42
2023-03-21T22:13:55.477Z,19.05
2023-03-21T22:16:22.377Z,18.60
2023-03-21T22:18:48.882Z,22.80
2023-03-21T22:21:15.568Z,19.25
2023-03-21T22:23:42.848Z,21.98
2023-03-21T22:26:09.925Z,23.95
2023-03-21T22:28:40.162Z,25.05
2023-03-21T22:31:15.682Z,20.75
2023-03-21T22:33:43.287Z,22.20
2023-03-21T22:36:10.365Z,22.00
2023-03-21T22:38:38.101Z,26.48
2023-03-21T22:41:05.727Z,23.80
2023-03-21T22:43:34.190Z,24.27
2023-03-21T22:46:04.469Z,31.42
2023-03-21T22:48:31.432Z,31.40
2023-03-21T22:50:59.403Z,25.02
2023-03-21T22:53:25.931Z,23.42
2023-03-21T22:55:52.377Z,24.48
2023-03-21T22:58:19.137Z,26.38
2023-03-21T23:00:45.909Z,25.40
2023-03-21T23:03:14.493Z,27.77
2023-03-21T23:05:41.589Z,28.38
2023-03-21T23:08:08.588Z,26.85
2023-03-21T23:10:38.145Z,27.27
2023-03-21T23:13:04.944Z,27.63
2023-03-21T23:15:31.386Z,32.03
2023-03-21T23:17:57.848Z,29.90
2023-03-21T23:20:24.287Z,30.83
2023-03-21T23:22:50.867Z,29.80
2023-03-21T23:25:20.322Z,41.33
2023-03-21T23:27:46.839Z,38.50
2023-03-21T23:30:13.435Z,26.15
2023-03-21T23:32:39.956Z,23.55
2023-03-21T23:35:06.981Z,23.33
2023-03-21T23:37:33.458Z,26.52
2023-03-21T23:39:59.988Z,23.60
2023-03-21T23:42:28.670Z,19.58
2023-03-21T23:44:55.246Z,16.70
2023-03-21T23:47:21.740Z,18.90
2023-03-21T23:49:49.950Z,20.92
2023-03-21T23:52:16.434Z,26.77
2023-03-21T23:54:43.033Z,27.40
2023-03-21T23:57:09.631Z,18.65
2023-03-21T23:59:36.188Z,20.85
